createdAt,value
2022-11-17T00:00:32.002Z,5.60
2022-11-17T00:03:00.116Z,5.50
2022-11-17T00:05:29.531Z,5.50
2022-11-17T00:07:57.511Z,5.50
2022-11-17T00:10:25.577Z,5.50
2022-11-17T00:13:11.131Z,5.50
2022-11-17T00:15:39.212Z,5.50
2022-11-17T00:18:24.873Z,5.50
2022-11-17T00:21:11.855Z,5.50
2022-11-17T00:23:49.783Z,5.50
2022-11-17T00:26:19.242Z,5.50
2022-11-17T00:28:47.414Z,5.50
2022-11-17T00:31:33.283Z,5.50
2022-11-17T00:34:07.615Z,5.50
2022-11-17T00:36:40.485Z,5.50
2022-11-17T00:39:09.346Z,5.50
2022-11-17T00:41:37.837Z,5.50
2022-11-17T00:44:06.794Z,5.50
2022-11-17T00:46:35.257Z,5.40
2022-11-17T00:49:04.673Z,5.40
2022-11-17T00:51:32.874Z,5.40
2022-11-17T00:54:02.667Z,5.40
2022-11-17T00:56:31.067Z,5.40
2022-11-17T00:58:59.408Z,5.40
2022-11-17T01:01:27.536Z,5.40
2022-11-17T01:04:03.321Z,5.40
2022-11-17T01:06:33.656Z,5.40
2022-11-17T01:09:05.099Z,5.40
2022-11-17T01:11:33.403Z,5.40
2022-11-17T01:14:02.406Z,5.40
2022-11-17T01:16:31.785Z,5.40
2022-11-17T01:19:01.973Z,5.40
2022-11-17T01:21:31.939Z,5.40
2022-11-17T01:24:02.728Z,5.40
2022-11-17T01:26:32.981Z,5.40
2022-11-17T01:29:02.611Z,5.40
2022-11-17T01:31:32.307Z,5.30
2022-11-17T01:34:00.909Z,5.30
2022-11-17T01:36:30.540Z,5.30
2022-11-17T01:38:58.649Z,5.30
2022-11-17T01:41:29.356Z,5.30
2022-11-17T01:43:58.529Z,5.30
2022-11-17T01:46:32.421Z,5.30
2022-11-17T01:49:04.289Z,5.30
2022-11-17T01:51:35.498Z,5.30
2022-11-17T01:54:04.057Z,5.30
2022-11-17T01:56:38.934Z,5.20
2022-11-17T01:59:10.552Z,5.20
2022-11-17T02:01:55.512Z,5.20
2022-11-17T02:04:26.034Z,5.20
2022-11-17T02:06:58.229Z,5.20
2022-11-17T02:09:26.999Z,5.20
2022-11-17T02:11:59.839Z,5.20
2022-11-17T02:14:28.081Z,5.10
2022-11-17T02:16:56.105Z,5.10
2022-11-17T02:19:26.267Z,5.10
2022-11-17T02:22:10.703Z,5.10
2022-11-17T02:25:05.712Z,5.10
2022-11-17T02:27:58.872Z,5.10
2022-11-17T02:30:33.401Z,5.00
2022-11-17T02:33:06.366Z,5.00
2022-11-17T02:35:45.562Z,5.00
2022-11-17T02:38:23.709Z,5.00
2022-11-17T02:40:56.197Z,5.00
2022-11-17T02:43:48.188Z,5.00
2022-11-17T02:46:18.823Z,5.00
2022-11-17T02:48:50.654Z,5.00
2022-11-17T02:51:22.664Z,5.00
2022-11-17T02:53:53.285Z,5.00
2022-11-17T02:56:21.462Z,5.00
2022-11-17T02:58:53.052Z,5.00
2022-11-17T03:01:54.777Z,5.00
2022-11-17T03:04:31.741Z,5.00
2022-11-17T03:07:19.710Z,5.00
2022-11-17T03:09:55.832Z,4.90
2022-11-17T03:12:27.921Z,4.90
2022-11-17T03:15:04.036Z,4.90
2022-11-17T03:17:37.838Z,4.90
2022-11-17T03:20:13.652Z,4.90
2022-11-17T03:22:47.982Z,4.90
2022-11-17T03:25:20.219Z,4.90
2022-11-17T03:27:50.779Z,4.90
2022-11-17T03:30:22.307Z,4.80
2022-11-17T03:32:53.874Z,4.80
2022-11-17T03:35:25.635Z,4.80
2022-11-17T03:37:56.853Z,4.80
2022-11-17T03:40:27.262Z,4.80
2022-11-17T03:42:59.215Z,4.80
2022-11-17T03:45:31.848Z,4.80
2022-11-17T03:48:06.152Z,4.80
2022-11-17T03:50:37.528Z,4.70
2022-11-17T03:53:07.131Z,4.70
2022-11-17T03:55:41.538Z,4.70
2022-11-17T03:58:14.015Z,4.70
2022-11-17T04:00:44.395Z,4.70
2022-11-17T04:03:12.499Z,4.70
2022-11-17T04:05:40.480Z,4.70
2022-11-17T04:08:08.449Z,4.70
2022-11-17T04:10:57.371Z,4.70
2022-11-17T04:13:42.819Z,4.70
2022-11-17T04:16:12.251Z,4.60
2022-11-17T04:18:40.189Z,4.60
2022-11-17T04:21:08.241Z,4.60
2022-11-17T04:23:36.604Z,4.60
2022-11-17T04:26:22.616Z,4.60
2022-11-17T04:28:51.775Z,4.60
2022-11-17T04:31:23.919Z,4.60
2022-11-17T04:33:53.664Z,4.50
2022-11-17T04:36:23.193Z,4.60
2022-11-17T04:38:52.828Z,4.50
2022-11-17T04:41:39.975Z,4.60
2022-11-17T04:44:09.777Z,4.50
2022-11-17T04:46:40.369Z,4.50
2022-11-17T04:49:09.357Z,4.50
2022-11-17T04:51:38.263Z,4.50
2022-11-17T04:54:07.852Z,4.50
2022-11-17T04:56:36.178Z,4.50
2022-11-17T04:59:04.618Z,4.50
2022-11-17T05:01:32.786Z,4.50
2022-11-17T05:04:03.779Z,4.50
2022-11-17T05:06:33.891Z,4.50
2022-11-17T05:09:03.483Z,4.50
2022-11-17T05:11:49.587Z,4.50
2022-11-17T05:14:21.892Z,4.50
2022-11-17T05:17:10.779Z,4.50
2022-11-17T05:19:41.904Z,4.50
2022-11-17T05:22:25.492Z,4.50
2022-11-17T05:24:53.795Z,4.50
2022-11-17T05:27:22.336Z,4.50
2022-11-17T05:29:50.594Z,4.50
2022-11-17T05:32:18.736Z,4.50
2022-11-17T05:34:48.081Z,4.50
2022-11-17T05:37:16.162Z,4.50
2022-11-17T05:39:44.225Z,4.50
2022-11-17T05:42:12.179Z,4.40
2022-11-17T05:44:40.260Z,4.40
2022-11-17T05:47:08.336Z,4.40
2022-11-17T05:49:36.405Z,4.40
2022-11-17T05:52:06.066Z,4.40
2022-11-17T05:54:34.051Z,4.40
2022-11-17T05:57:05.715Z,4.40
2022-11-17T05:59:37.775Z,4.40
2022-11-17T06:02:10.157Z,4.40
2022-11-17T06:04:39.105Z,4.40
2022-11-17T06:07:08.752Z,4.40
2022-11-17T06:09:40.073Z,4.40
2022-11-17T06:12:08.089Z,4.40
2022-11-17T06:14:37.675Z,4.30
2022-11-17T06:17:10.347Z,4.30
2022-11-17T06:19:42.133Z,4.30
2022-11-17T06:22:13.326Z,4.30
2022-11-17T06:24:42.993Z,4.30
2022-11-17T06:27:11.865Z,4.30
2022-11-17T06:29:44.228Z,4.30
2022-11-17T06:32:13.438Z,4.30
2022-11-17T06:34:41.623Z,4.30
2022-11-17T06:37:11.513Z,4.30
2022-11-17T06:39:39.651Z,4.30
2022-11-17T06:42:07.648Z,4.30
2022-11-17T06:44:35.674Z,4.30
2022-11-17T06:47:03.676Z,4.30
2022-11-17T06:49:31.641Z,4.30
2022-11-17T06:51:59.633Z,4.30
2022-11-17T06:54:28.956Z,4.30
2022-11-17T06:56:57.156Z,4.30
2022-11-17T06:59:25.133Z,4.30
2022-11-17T07:01:53.262Z,4.30
2022-11-17T07:04:21.203Z,4.30
2022-11-17T07:06:49.220Z,4.30
2022-11-17T07:09:17.196Z,4.30
2022-11-17T07:11:46.514Z,4.30
2022-11-17T07:14:14.512Z,4.30
2022-11-17T07:16:43.583Z,4.30
2022-11-17T07:19:13.104Z,4.30
2022-11-17T07:21:41.103Z,4.30
2022-11-17T07:24:09.699Z,4.30
2022-11-17T07:26:37.706Z,4.30
2022-11-17T07:29:07.210Z,4.30
2022-11-17T07:31:36.733Z,4.30
2022-11-17T07:34:04.692Z,4.20
2022-11-17T07:36:32.695Z,4.20
2022-11-17T07:39:00.691Z,4.20
2022-11-17T07:41:28.920Z,4.20
2022-11-17T07:43:56.893Z,4.20
2022-11-17T07:46:26.548Z,4.20
2022-11-17T07:48:55.416Z,4.20
2022-11-17T07:51:23.513Z,4.30
2022-11-17T07:53:51.506Z,4.20
2022-11-17T07:56:19.477Z,4.20
2022-11-17T07:58:47.490Z,4.20
2022-11-17T08:01:16.430Z,4.20
2022-11-17T08:03:45.916Z,4.20
2022-11-17T08:06:14.273Z,4.20
2022-11-17T08:08:42.341Z,4.20
2022-11-17T08:11:12.406Z,4.20
2022-11-17T08:13:41.360Z,4.20
2022-11-17T08:16:11.101Z,4.20
2022-11-17T08:18:40.198Z,4.20
2022-11-17T08:21:11.680Z,4.20
2022-11-17T08:23:39.780Z,4.30
2022-11-17T08:26:08.924Z,4.30
2022-11-17T08:28:37.326Z,4.30
2022-11-17T08:31:07.330Z,4.30
2022-11-17T08:33:35.935Z,4.30
2022-11-17T08:36:07.054Z,4.30
2022-11-17T08:38:37.043Z,4.30
2022-11-17T08:41:07.659Z,4.30
2022-11-17T08:43:36.274Z,4.30
2022-11-17T08:46:04.637Z,4.30
2022-11-17T08:48:33.402Z,4.30
2022-11-17T08:51:06.725Z,4.30
2022-11-17T08:53:36.356Z,4.30
2022-11-17T08:56:08.282Z,4.30
2022-11-17T08:58:40.257Z,4.30
2022-11-17T09:01:09.650Z,4.30
2022-11-17T09:03:38.209Z,4.30
2022-11-17T09:06:07.128Z,4.30
2022-11-17T09:08:51.904Z,4.30
2022-11-17T09:11:20.815Z,4.30
2022-11-17T09:13:48.824Z,4.30
2022-11-17T09:16:17.953Z,4.30
2022-11-17T09:18:46.231Z,4.30
2022-11-17T09:21:16.487Z,4.30
2022-11-17T09:23:45.856Z,4.30
2022-11-17T09:26:15.978Z,4.30
2022-11-17T09:28:44.856Z,4.30
2022-11-17T09:31:15.039Z,4.30
2022-11-17T09:33:43.757Z,4.30
2022-11-17T09:36:12.726Z,4.30
2022-11-17T09:38:41.486Z,4.30
2022-11-17T09:41:22.752Z,4.30
2022-11-17T09:43:56.420Z,4.30
2022-11-17T09:46:30.680Z,4.30
2022-11-17T09:49:03.766Z,4.30
2022-11-17T09:51:35.351Z,4.30
2022-11-17T09:54:08.885Z,4.30
2022-11-17T09:56:39.032Z,4.40
2022-11-17T09:59:13.301Z,4.40
2022-11-17T10:01:41.355Z,4.40
2022-11-17T10:04:13.051Z,4.40
2022-11-17T10:06:43.288Z,4.40
2022-11-17T10:09:25.135Z,4.40
2022-11-17T10:12:00.678Z,4.50
2022-11-17T10:14:30.295Z,4.50
2022-11-17T10:16:59.932Z,4.50
2022-11-17T10:19:29.813Z,4.50
2022-11-17T10:22:20.421Z,4.50
2022-11-17T10:24:52.142Z,4.50
2022-11-17T10:27:24.458Z,4.50
2022-11-17T10:30:00.943Z,4.60
2022-11-17T10:32:30.386Z,4.60
2022-11-17T10:35:15.405Z,4.60
2022-11-17T10:37:45.786Z,4.60
2022-11-17T10:40:24.729Z,4.60
2022-11-17T10:43:22.027Z,4.50
2022-11-17T10:45:52.486Z,4.50
2022-11-17T10:48:26.389Z,4.50
2022-11-17T10:50:56.842Z,4.50
2022-11-17T10:53:31.179Z,4.50
2022-11-17T10:56:03.346Z,4.50
2022-11-17T10:58:34.322Z,4.40
2022-11-17T11:01:04.252Z,4.40
2022-11-17T11:03:34.267Z,4.40
2022-11-17T11:06:06.022Z,4.40
2022-11-17T11:08:42.879Z,4.40
2022-11-17T11:11:20.191Z,4.40
2022-11-17T11:13:54.915Z,4.40
2022-11-17T11:16:22.907Z,4.40
2022-11-17T11:18:54.065Z,4.40
2022-11-17T11:21:37.952Z,4.40
2022-11-17T11:24:14.383Z,4.40
2022-11-17T11:26:50.879Z,4.40
2022-11-17T11:29:29.083Z,4.40
2022-11-17T11:32:11.208Z,4.40
2022-11-17T11:34:56.922Z,4.40
2022-11-17T11:37:30.801Z,4.40
2022-11-17T11:40:10.953Z,4.40
2022-11-17T11:42:53.898Z,4.40
2022-11-17T11:45:37.727Z,4.40
2022-11-17T11:48:22.156Z,4.40
2022-11-17T11:50:56.759Z,4.30
2022-11-17T11:53:39.071Z,4.30
2022-11-17T11:56:22.830Z,4.30
2022-11-17T11:58:59.768Z,4.30
2022-11-17T12:01:33.190Z,4.30
2022-11-17T12:04:15.777Z,4.30
2022-11-17T12:06:53.864Z,4.30
2022-11-17T12:09:48.518Z,4.30
2022-11-17T12:12:18.508Z,4.30
2022-11-17T12:15:19.869Z,4.20
2022-11-17T12:18:14.472Z,4.30
2022-11-17T12:20:55.854Z,4.30
2022-11-17T12:23:50.449Z,4.30
2022-11-17T12:26:27.381Z,4.30
2022-11-17T12:29:24.585Z,4.30
2022-11-17T12:31:53.418Z,4.30
2022-11-17T12:34:37.258Z,4.30
2022-11-17T12:37:27.463Z,4.30
2022-11-17T12:39:58.637Z,4.30
2022-11-17T12:42:26.824Z,4.30
2022-11-17T12:45:09.436Z,4.40
2022-11-17T12:47:39.217Z,4.30
2022-11-17T12:50:24.262Z,4.40
2022-11-17T12:53:18.287Z,4.40
2022-11-17T12:56:16.041Z,4.30
2022-11-17T12:58:56.883Z,4.40
2022-11-17T13:01:32.416Z,4.30
2022-11-17T13:04:05.425Z,4.40
2022-11-17T13:06:36.308Z,4.30
2022-11-17T13:09:07.280Z,4.30
2022-11-17T13:11:36.413Z,4.30
2022-11-17T13:14:13.588Z,4.30
2022-11-17T13:16:46.370Z,4.30
2022-11-17T13:19:36.313Z,4.30
2022-11-17T13:22:14.662Z,4.30
2022-11-17T13:24:44.958Z,4.30
2022-11-17T13:27:22.127Z,4.30
2022-11-17T13:29:50.305Z,4.30
2022-11-17T13:32:21.331Z,4.30
2022-11-17T13:34:56.308Z,4.30
2022-11-17T13:37:27.415Z,4.30
2022-11-17T13:40:01.473Z,4.30
2022-11-17T13:42:32.373Z,4.30
2022-11-17T13:45:03.718Z,4.30
2022-11-17T13:47:46.989Z,4.30
2022-11-17T13:50:35.415Z,4.30
2022-11-17T13:53:13.853Z,4.30
2022-11-17T13:55:46.177Z,4.30
2022-11-17T13:58:26.868Z,4.30
2022-11-17T14:00:58.075Z,4.30
2022-11-17T14:03:36.667Z,4.30
2022-11-17T14:06:07.628Z,4.30
2022-11-17T14:08:38.868Z,4.20
2022-11-17T14:11:21.549Z,4.20
2022-11-17T14:13:52.121Z,4.20
2022-11-17T14:16:26.581Z,4.20
2022-11-17T14:19:05.307Z,4.20
2022-11-17T14:21:34.007Z,4.20
2022-11-17T14:24:06.383Z,4.20
2022-11-17T14:26:34.612Z,4.20
2022-11-17T14:29:03.210Z,4.10
2022-11-17T14:31:33.256Z,4.20
2022-11-17T14:34:01.507Z,4.10
2022-11-17T14:36:30.370Z,4.10
2022-11-17T14:38:58.691Z,4.10
2022-11-17T14:41:28.040Z,4.10
2022-11-17T14:43:56.064Z,4.10
2022-11-17T14:46:26.126Z,4.10
2022-11-17T14:48:55.389Z,4.10
2022-11-17T14:51:23.755Z,4.10
2022-11-17T14:53:51.731Z,4.10
2022-11-17T14:56:21.433Z,4.10
2022-11-17T14:58:56.310Z,4.10
2022-11-17T15:01:28.362Z,4.10
2022-11-17T15:03:57.668Z,4.00
2022-11-17T15:06:25.799Z,4.00
2022-11-17T15:08:58.234Z,4.00
2022-11-17T15:11:26.921Z,4.00
2022-11-17T15:13:56.386Z,4.00
2022-11-17T15:16:24.354Z,4.00
2022-11-17T15:18:52.394Z,4.00
2022-11-17T15:21:20.487Z,4.00
2022-11-17T15:23:48.513Z,4.00
2022-11-17T15:26:18.888Z,4.00
2022-11-17T15:28:47.234Z,4.00
2022-11-17T15:31:18.280Z,4.00
2022-11-17T15:33:47.796Z,4.00
2022-11-17T15:36:17.410Z,4.00
2022-11-17T15:38:45.556Z,4.00
2022-11-17T15:41:15.056Z,4.00
2022-11-17T15:43:44.710Z,4.00
2022-11-17T15:46:14.203Z,4.00
2022-11-17T15:48:45.632Z,4.00
2022-11-17T15:51:15.343Z,4.00
2022-11-17T15:53:45.079Z,3.90
2022-11-17T15:56:15.209Z,3.90
2022-11-17T15:58:44.227Z,3.90
2022-11-17T16:01:14.223Z,3.90
2022-11-17T16:03:45.164Z,3.90
2022-11-17T16:06:13.884Z,3.90
2022-11-17T16:08:42.122Z,3.90
2022-11-17T16:11:11.347Z,3.90
2022-11-17T16:13:39.556Z,4.00
2022-11-17T16:16:08.793Z,4.00
2022-11-17T16:18:38.508Z,4.00
2022-11-17T16:21:10.591Z,4.00
2022-11-17T16:23:39.708Z,4.00
2022-11-17T16:26:08.102Z,4.00
2022-11-17T16:28:36.344Z,4.00
2022-11-17T16:31:14.609Z,4.00
2022-11-17T16:33:47.631Z,4.00
2022-11-17T16:36:17.195Z,4.00
2022-11-17T16:39:02.147Z,4.00
2022-11-17T16:41:32.885Z,4.00
2022-11-17T16:44:01.323Z,4.00
2022-11-17T16:46:31.007Z,4.00
2022-11-17T16:49:02.797Z,4.00
2022-11-17T16:51:32.362Z,4.00
2022-11-17T16:54:01.826Z,4.00
2022-11-17T16:56:30.472Z,4.00
2022-11-17T16:58:58.740Z,4.00
2022-11-17T17:01:28.602Z,3.90
2022-11-17T17:03:57.810Z,3.90
2022-11-17T17:06:26.419Z,3.90
2022-11-17T17:08:56.486Z,3.90
2022-11-17T17:11:25.202Z,3.90
2022-11-17T17:13:53.763Z,3.90
2022-11-17T17:16:21.962Z,3.90
2022-11-17T17:18:55.577Z,3.90
2022-11-17T17:21:23.808Z,3.90
2022-11-17T17:23:52.239Z,3.90
2022-11-17T17:26:23.521Z,3.90
2022-11-17T17:28:52.820Z,3.90
2022-11-17T17:31:22.607Z,3.90
2022-11-17T17:33:51.804Z,3.90
2022-11-17T17:36:21.306Z,3.90
2022-11-17T17:38:54.905Z,3.90
2022-11-17T17:41:27.020Z,3.90
2022-11-17T17:43:56.931Z,3.90
2022-11-17T17:46:25.363Z,3.90
2022-11-17T17:48:53.532Z,3.90
2022-11-17T17:51:23.938Z,3.90
2022-11-17T17:53:52.382Z,3.90
2022-11-17T17:56:22.311Z,3.90
2022-11-17T17:58:52.114Z,3.90
2022-11-17T18:01:22.444Z,3.90
2022-11-17T18:03:51.671Z,3.90
2022-11-17T18:06:22.052Z,3.90
2022-11-17T18:08:50.479Z,3.90
2022-11-17T18:11:20.561Z,3.90
2022-11-17T18:13:51.637Z,3.90
2022-11-17T18:16:21.522Z,3.90
2022-11-17T18:18:49.719Z,3.90
2022-11-17T18:21:19.799Z,3.90
2022-11-17T18:23:48.049Z,3.90
2022-11-17T18:26:19.618Z,3.90
2022-11-17T18:28:53.649Z,3.90
2022-11-17T18:31:23.008Z,3.90
2022-11-17T18:33:55.328Z,3.90
2022-11-17T18:36:23.691Z,3.90
2022-11-17T18:38:52.705Z,3.90
2022-11-17T18:41:22.540Z,3.90
2022-11-17T18:43:52.428Z,3.90
2022-11-17T18:46:22.377Z,3.90
2022-11-17T18:48:52.625Z,3.90
2022-11-17T18:51:22.132Z,3.90
2022-11-17T18:53:51.526Z,3.90
2022-11-17T18:56:21.203Z,3.90
2022-11-17T18:58:49.350Z,3.90
2022-11-17T19:01:20.667Z,3.90
2022-11-17T19:03:50.163Z,3.90
2022-11-17T19:06:19.277Z,3.90
2022-11-17T19:08:48.166Z,3.90
2022-11-17T19:11:17.345Z,3.90
2022-11-17T19:13:45.849Z,3.90
2022-11-17T19:16:15.751Z,3.90
2022-11-17T19:18:46.838Z,3.90
2022-11-17T19:21:16.869Z,3.90
2022-11-17T19:23:51.422Z,3.90
2022-11-17T19:26:22.194Z,3.90
2022-11-17T19:28:50.657Z,3.90
2022-11-17T19:31:20.334Z,3.80
2022-11-17T19:33:50.179Z,3.80
2022-11-17T19:36:20.108Z,3.80
2022-11-17T19:38:49.950Z,3.80
2022-11-17T19:41:20.177Z,3.80
2022-11-17T19:43:48.753Z,3.80
2022-11-17T19:46:18.026Z,3.80
2022-11-17T19:48:46.493Z,3.80
2022-11-17T19:51:19.807Z,3.70
2022-11-17T19:53:48.150Z,3.80
2022-11-17T19:56:16.631Z,3.80
2022-11-17T19:58:45.176Z,3.70
2022-11-17T20:01:15.790Z,3.80
2022-11-17T20:03:44.630Z,3.70
2022-11-17T20:06:15.057Z,3.70
2022-11-17T20:08:44.636Z,3.70
2022-11-17T20:11:14.505Z,3.70
2022-11-17T20:13:42.752Z,3.70
2022-11-17T20:16:13.735Z,3.70
2022-11-17T20:18:42.710Z,3.70
2022-11-17T20:21:11.718Z,3.60
2022-11-17T20:23:39.927Z,3.60
2022-11-17T20:26:11.571Z,3.60
2022-11-17T20:28:39.905Z,3.60
2022-11-17T20:31:09.850Z,3.50
2022-11-17T20:33:38.222Z,3.50
2022-11-17T20:36:07.814Z,3.50
2022-11-17T20:38:36.953Z,3.50
2022-11-17T20:41:05.561Z,3.50
2022-11-17T20:43:35.692Z,3.50
2022-11-17T20:46:05.040Z,3.50
2022-11-17T20:48:34.232Z,3.50
2022-11-17T20:51:04.202Z,3.50
2022-11-17T20:53:32.969Z,3.40
2022-11-17T20:56:06.001Z,3.40
2022-11-17T20:58:36.423Z,3.40
2022-11-17T21:01:12.047Z,3.40
2022-11-17T21:03:40.094Z,3.40
2022-11-17T21:06:10.170Z,3.40
2022-11-17T21:08:40.193Z,3.30
2022-11-17T21:11:10.160Z,3.30
2022-11-17T21:13:39.575Z,3.30
2022-11-17T21:16:09.656Z,3.30
2022-11-17T21:18:40.046Z,3.30
2022-11-17T21:21:09.571Z,3.30
2022-11-17T21:23:38.503Z,3.20
2022-11-17T21:26:07.035Z,3.20
2022-11-17T21:28:35.207Z,3.20
2022-11-17T21:31:07.736Z,3.20
2022-11-17T21:33:36.180Z,3.20
2022-11-17T21:36:05.219Z,3.10
2022-11-17T21:38:33.265Z,3.10
2022-11-17T21:41:04.579Z,3.10
2022-11-17T21:43:32.892Z,3.10
2022-11-17T21:46:06.849Z,3.10
2022-11-17T21:48:36.509Z,3.10
2022-11-17T21:51:04.928Z,3.10
2022-11-17T21:53:32.931Z,3.00
2022-11-17T21:56:05.453Z,3.00
2022-11-17T21:58:33.914Z,3.00
2022-11-17T22:01:09.142Z,3.00
2022-11-17T22:03:37.595Z,3.00
2022-11-17T22:06:10.094Z,3.00
2022-11-17T22:08:39.298Z,3.00
2022-11-17T22:11:09.370Z,3.00
2022-11-17T22:13:37.425Z,3.00
2022-11-17T22:16:10.606Z,3.00
2022-11-17T22:18:38.699Z,3.00
2022-11-17T22:21:07.435Z,3.00
2022-11-17T22:23:35.711Z,3.00
2022-11-17T22:26:06.333Z,3.00
2022-11-17T22:28:34.599Z,3.00
2022-11-17T22:31:08.046Z,3.00
2022-11-17T22:33:36.230Z,3.00
2022-11-17T22:36:04.632Z,3.00
2022-11-17T22:38:32.749Z,3.00
2022-11-17T22:41:01.471Z,3.00
2022-11-17T22:43:30.013Z,3.00
2022-11-17T22:45:58.547Z,3.00
2022-11-17T22:48:27.933Z,3.00
2022-11-17T22:50:58.925Z,3.00
2022-11-17T22:53:27.022Z,3.00
2022-11-17T22:55:55.430Z,3.00
2022-11-17T22:58:23.437Z,3.00
2022-11-17T23:00:52.992Z,3.00
2022-11-17T23:03:21.051Z,3.00
2022-11-17T23:05:50.472Z,3.00
2022-11-17T23:08:18.458Z,3.00
2022-11-17T23:10:46.536Z,3.00
2022-11-17T23:13:14.509Z,3.00
2022-11-17T23:15:42.502Z,3.00
2022-11-17T23:18:10.511Z,3.00
2022-11-17T23:20:38.605Z,3.00
2022-11-17T23:23:07.946Z,2.90
2022-11-17T23:25:35.946Z,2.90
2022-11-17T23:28:03.957Z,2.90
2022-11-17T23:30:31.933Z,2.90
2022-11-17T23:32:59.953Z,2.90
2022-11-17T23:35:28.385Z,2.90
2022-11-17T23:37:56.454Z,2.90
2022-11-17T23:40:25.934Z,2.90
2022-11-17T23:42:54.224Z,2.80
2022-11-17T23:45:22.265Z,2.80
2022-11-17T23:47:50.266Z,2.80
2022-11-17T23:50:18.802Z,2.80
2022-11-17T23:52:46.825Z,2.80
2022-11-17T23:55:15.094Z,2.80
2022-11-17T23:57:44.542Z,2.80
